sensor_id;sensor_type;location;lat;lon;timestamp;P1;durP1;ratioP1;P2;durP2;ratioP2
703;SDS011;335;48.694;9.120;2023-03-15T00:01:15;4.27;;;3.47;;
703;SDS011;335;48.694;9.120;2023-03-15T00:03:42;3.53;;;3.22;;
703;SDS011;335;48.694;9.120;2023-03-15T00:06:08;7.32;;;3.65;;
703;SDS011;335;48.694;9.120;2023-03-15T00:08:34;6.03;;;3.45;;
703;SDS011;335;48.694;9.120;2023-03-15T00:11:00;5.23;;;4.73;;
703;SDS011;335;48.694;9.120;2023-03-15T00:13:26;3.50;;;3.30;;
703;SDS011;335;48.694;9.120;2023-03-15T00:15:52;3.77;;;3.27;;
703;SDS011;335;48.694;9.120;2023-03-15T00:18:21;5.22;;;4.20;;
703;SDS011;335;48.694;9.120;2023-03-15T00:20:47;5.57;;;4.83;;
703;SDS011;335;48.694;9.120;2023-03-15T00:23:12;5.60;;;4.70;;
703;SDS011;335;48.694;9.120;2023-03-15T00:25:38;5.57;;;3.77;;
703;SDS011;335;48.694;9.120;2023-03-15T00:28:04;4.30;;;3.90;;
703;SDS011;335;48.694;9.120;2023-03-15T00:30:29;4.83;;;4.40;;
703;SDS011;335;48.694;9.120;2023-03-15T00:32:55;8.00;;;5.17;;
703;SDS011;335;48.694;9.120;2023-03-15T00:35:20;3.60;;;3.37;;
703;SDS011;335;48.694;9.120;2023-03-15T00:37:48;7.10;;;4.72;;
703;SDS011;335;48.694;9.120;2023-03-15T00:40:13;4.67;;;4.17;;
703;SDS011;335;48.694;9.120;2023-03-15T00:42:39;4.87;;;4.47;;
703;SDS011;335;48.694;9.120;2023-03-15T00:45:04;5.60;;;4.10;;
703;SDS011;335;48.694;9.120;2023-03-15T00:47:30;5.53;;;4.70;;
703;SDS011;335;48.694;9.120;2023-03-15T00:49:56;5.03;;;3.60;;
703;SDS011;335;48.694;9.120;2023-03-15T00:52:21;4.87;;;3.80;;
703;SDS011;335;48.694;9.120;2023-03-15T00:54:50;3.90;;;3.60;;
703;SDS011;335;48.694;9.120;2023-03-15T00:57:17;6.35;;;4.15;;
703;SDS011;335;48.694;9.120;2023-03-15T00:59:42;6.93;;;4.17;;
703;SDS011;335;48.694;9.120;2023-03-15T01:02:08;6.15;;;4.30;;
703;SDS011;335;48.694;9.120;2023-03-15T01:04:34;7.63;;;4.27;;
703;SDS011;335;48.694;9.120;2023-03-15T01:06:59;8.90;;;4.10;;
703;SDS011;335;48.694;9.120;2023-03-15T01:09:25;6.60;;;3.80;;
703;SDS011;335;48.694;9.120;2023-03-15T01:11:50;5.63;;;4.10;;
703;SDS011;335;48.694;9.120;2023-03-15T01:14:15;8.77;;;5.90;;
703;SDS011;335;48.694;9.120;2023-03-15T01:16:42;12.23;;;4.28;;
703;SDS011;335;48.694;9.120;2023-03-15T01:19:08;6.13;;;4.07;;
703;SDS011;335;48.694;9.120;2023-03-15T01:21:33;4.17;;;3.33;;
703;SDS011;335;48.694;9.120;2023-03-15T01:23:58;3.70;;;3.37;;
703;SDS011;335;48.694;9.120;2023-03-15T01:26:24;6.03;;;3.70;;
703;SDS011;335;48.694;9.120;2023-03-15T01:28:49;3.77;;;3.10;;
703;SDS011;335;48.694;9.120;2023-03-15T01:31:19;4.40;;;3.77;;
703;SDS011;335;48.694;9.120;2023-03-15T01:33:45;6.82;;;3.92;;
703;SDS011;335;48.694;9.120;2023-03-15T01:36:10;8.67;;;3.17;;
703;SDS011;335;48.694;9.120;2023-03-15T01:38:36;10.77;;;3.30;;
703;SDS011;335;48.694;9.120;2023-03-15T01:41:02;4.00;;;3.00;;
703;SDS011;335;48.694;9.120;2023-03-15T01:43:28;5.23;;;2.57;;
703;SDS011;335;48.694;9.120;2023-03-15T01:46:00;5.15;;;3.00;;
703;SDS011;335;48.694;9.120;2023-03-15T01:54:18;5.22;;;1.92;;
703;SDS011;335;48.694;9.120;2023-03-15T01:56:56;3.70;;;2.20;;
703;SDS011;335;48.694;9.120;2023-03-15T01:59:26;4.70;;;2.15;;
703;SDS011;335;48.694;9.120;2023-03-15T02:01:55;3.80;;;2.63;;
703;SDS011;335;48.694;9.120;2023-03-15T02:04:22;5.00;;;2.00;;
703;SDS011;335;48.694;9.120;2023-03-15T02:06:49;5.68;;;3.00;;
703;SDS011;335;48.694;9.120;2023-03-15T02:09:23;7.45;;;2.38;;
703;SDS011;335;48.694;9.120;2023-03-15T02:11:55;4.40;;;1.85;;
703;SDS011;335;48.694;9.120;2023-03-15T02:14:21;4.63;;;2.53;;
703;SDS011;335;48.694;9.120;2023-03-15T02:16:47;4.47;;;2.00;;
703;SDS011;335;48.694;9.120;2023-03-15T02:19:19;4.90;;;2.00;;
703;SDS011;335;48.694;9.120;2023-03-15T02:22:00;4.13;;;1.63;;
703;SDS011;335;48.694;9.120;2023-03-15T02:27:19;4.22;;;2.33;;
703;SDS011;335;48.694;9.120;2023-03-15T02:29:47;3.65;;;1.75;;
703;SDS011;335;48.694;9.120;2023-03-15T02:32:13;2.03;;;1.83;;
703;SDS011;335;48.694;9.120;2023-03-15T02:34:38;2.17;;;1.53;;
703;SDS011;335;48.694;9.120;2023-03-15T02:37:03;2.30;;;2.10;;
703;SDS011;335;48.694;9.120;2023-03-15T02:39:28;7.27;;;2.27;;
703;SDS011;335;48.694;9.120;2023-03-15T02:41:55;3.47;;;2.33;;
703;SDS011;335;48.694;9.120;2023-03-15T02:44:37;2.25;;;1.85;;
703;SDS011;335;48.694;9.120;2023-03-15T02:47:24;4.78;;;2.63;;
703;SDS011;335;48.694;9.120;2023-03-15T02:49:52;7.20;;;2.40;;
703;SDS011;335;48.694;9.120;2023-03-15T02:52:17;4.50;;;2.37;;
703;SDS011;335;48.694;9.120;2023-03-15T02:54:43;2.65;;;2.05;;
703;SDS011;335;48.694;9.120;2023-03-15T02:57:09;3.07;;;1.90;;
703;SDS011;335;48.694;9.120;2023-03-15T02:59:35;6.50;;;1.80;;
703;SDS011;335;48.694;9.120;2023-03-15T03:02:01;3.47;;;1.97;;
703;SDS011;335;48.694;9.120;2023-03-15T03:04:26;5.37;;;2.63;;
703;SDS011;335;48.694;9.120;2023-03-15T03:06:51;2.30;;;2.10;;
703;SDS011;335;48.694;9.120;2023-03-15T03:09:17;2.30;;;1.83;;
703;SDS011;335;48.694;9.120;2023-03-15T03:11:42;3.33;;;2.20;;
703;SDS011;335;48.694;9.120;2023-03-15T03:14:08;2.50;;;2.03;;
703;SDS011;335;48.694;9.120;2023-03-15T03:16:33;5.20;;;2.17;;
703;SDS011;335;48.694;9.120;2023-03-15T03:18:59;2.33;;;1.80;;
703;SDS011;335;48.694;9.120;2023-03-15T03:21:25;7.35;;;2.50;;
703;SDS011;335;48.694;9.120;2023-03-15T03:23:50;5.77;;;2.03;;
703;SDS011;335;48.694;9.120;2023-03-15T03:26:16;3.10;;;2.80;;
703;SDS011;335;48.694;9.120;2023-03-15T03:28:43;3.72;;;1.88;;
703;SDS011;335;48.694;9.120;2023-03-15T03:31:20;5.05;;;2.38;;
703;SDS011;335;48.694;9.120;2023-03-15T03:33:47;3.08;;;2.05;;
703;SDS011;335;48.694;9.120;2023-03-15T03:36:13;6.50;;;3.00;;
703;SDS011;335;48.694;9.120;2023-03-15T03:38:42;3.83;;;2.43;;
703;SDS011;335;48.694;9.120;2023-03-15T03:41:08;7.85;;;3.10;;
703;SDS011;335;48.694;9.120;2023-03-15T03:43:34;9.05;;;2.65;;
703;SDS011;335;48.694;9.120;2023-03-15T03:46:00;2.60;;;2.13;;
703;SDS011;335;48.694;9.120;2023-03-15T03:48:25;2.90;;;2.30;;
703;SDS011;335;48.694;9.120;2023-03-15T03:50:50;3.57;;;2.40;;
703;SDS011;335;48.694;9.120;2023-03-15T03:53:16;8.20;;;2.97;;
703;SDS011;335;48.694;9.120;2023-03-15T03:55:41;4.83;;;3.20;;
703;SDS011;335;48.694;9.120;2023-03-15T03:58:07;5.50;;;2.80;;
703;SDS011;335;48.694;9.120;2023-03-15T04:00:33;3.80;;;2.20;;
703;SDS011;335;48.694;9.120;2023-03-15T04:02:58;7.80;;;2.27;;
703;SDS011;335;48.694;9.120;2023-03-15T04:05:23;6.87;;;2.83;;
703;SDS011;335;48.694;9.120;2023-03-15T04:07:48;8.40;;;3.80;;
703;SDS011;335;48.694;9.120;2023-03-15T04:10:14;5.97;;;3.00;;
703;SDS011;335;48.694;9.120;2023-03-15T04:12:41;6.03;;;2.90;;
703;SDS011;335;48.694;9.120;2023-03-15T04:15:08;6.05;;;3.03;;
703;SDS011;335;48.694;9.120;2023-03-15T04:17:35;3.72;;;3.42;;
703;SDS011;335;48.694;9.120;2023-03-15T04:20:00;3.40;;;2.90;;
703;SDS011;335;48.694;9.120;2023-03-15T04:22:26;3.80;;;2.83;;
703;SDS011;335;48.694;9.120;2023-03-15T04:24:51;3.37;;;2.90;;
703;SDS011;335;48.694;9.120;2023-03-15T04:27:17;4.87;;;2.70;;
703;SDS011;335;48.694;9.120;2023-03-15T04:29:42;7.53;;;2.90;;
703;SDS011;335;48.694;9.120;2023-03-15T04:32:08;4.43;;;3.03;;
703;SDS011;335;48.694;9.120;2023-03-15T04:34:34;11.43;;;3.00;;
703;SDS011;335;48.694;9.120;2023-03-15T04:37:03;3.80;;;3.50;;
703;SDS011;335;48.694;9.120;2023-03-15T04:39:28;7.70;;;3.07;;
703;SDS011;335;48.694;9.120;2023-03-15T04:41:54;6.93;;;3.10;;
703;SDS011;335;48.694;9.120;2023-03-15T04:44:19;6.30;;;2.90;;
703;SDS011;335;48.694;9.120;2023-03-15T04:46:44;3.97;;;2.53;;
703;SDS011;335;48.694;9.120;2023-03-15T04:49:10;4.10;;;3.03;;
703;SDS011;335;48.694;9.120;2023-03-15T04:51:35;4.70;;;3.83;;
703;SDS011;335;48.694;9.120;2023-03-15T04:54:01;5.87;;;3.33;;
703;SDS011;335;48.694;9.120;2023-03-15T04:56:27;4.90;;;3.40;;
703;SDS011;335;48.694;9.120;2023-03-15T04:58:52;4.50;;;4.00;;
703;SDS011;335;48.694;9.120;2023-03-15T05:01:18;8.03;;;4.83;;
703;SDS011;335;48.694;9.120;2023-03-15T05:03:43;9.90;;;4.77;;
703;SDS011;335;48.694;9.120;2023-03-15T05:06:09;5.80;;;3.47;;
703;SDS011;335;48.694;9.120;2023-03-15T05:08:34;5.57;;;3.57;;
703;SDS011;335;48.694;9.120;2023-03-15T05:11:01;8.77;;;3.60;;
703;SDS011;335;48.694;9.120;2023-03-15T05:13:29;3.90;;;3.40;;
703;SDS011;335;48.694;9.120;2023-03-15T05:15:55;3.97;;;3.07;;
703;SDS011;335;48.694;9.120;2023-03-15T05:18:20;5.00;;;3.60;;
703;SDS011;335;48.694;9.120;2023-03-15T05:20:46;12.07;;;4.53;;
703;SDS011;335;48.694;9.120;2023-03-15T05:23:11;4.70;;;3.87;;
703;SDS011;335;48.694;9.120;2023-03-15T05:25:37;4.78;;;4.07;;
703;SDS011;335;48.694;9.120;2023-03-15T05:28:03;4.50;;;3.70;;
703;SDS011;335;48.694;9.120;2023-03-15T05:30:29;3.93;;;3.47;;
703;SDS011;335;48.694;9.120;2023-03-15T05:32:55;7.07;;;3.77;;
703;SDS011;335;48.694;9.120;2023-03-15T05:35:20;8.67;;;4.90;;
703;SDS011;335;48.694;9.120;2023-03-15T05:37:48;5.95;;;3.83;;
703;SDS011;335;48.694;9.120;2023-03-15T05:40:13;9.17;;;3.83;;
703;SDS011;335;48.694;9.120;2023-03-15T05:42:39;5.88;;;4.50;;
703;SDS011;335;48.694;9.120;2023-03-15T05:45:05;7.10;;;4.33;;
703;SDS011;335;48.694;9.120;2023-03-15T05:47:31;6.68;;;3.88;;
703;SDS011;335;48.694;9.120;2023-03-15T05:49:56;5.13;;;3.97;;
703;SDS011;335;48.694;9.120;2023-03-15T05:52:22;4.53;;;3.87;;
703;SDS011;335;48.694;9.120;2023-03-15T05:54:48;9.77;;;4.97;;
703;SDS011;335;48.694;9.120;2023-03-15T05:57:13;6.43;;;3.67;;
703;SDS011;335;48.694;9.120;2023-03-15T05:59:38;9.77;;;4.97;;
703;SDS011;335;48.694;9.120;2023-03-15T06:02:04;9.13;;;5.30;;
703;SDS011;335;48.694;9.120;2023-03-15T06:04:29;13.00;;;6.43;;
703;SDS011;335;48.694;9.120;2023-03-15T06:06:54;7.67;;;4.50;;
703;SDS011;335;48.694;9.120;2023-03-15T06:09:20;5.27;;;4.20;;
703;SDS011;335;48.694;9.120;2023-03-15T06:11:45;5.20;;;4.33;;
703;SDS011;335;48.694;9.120;2023-03-15T06:14:10;10.40;;;6.90;;
703;SDS011;335;48.694;9.120;2023-03-15T06:16:36;6.33;;;4.90;;
703;SDS011;335;48.694;9.120;2023-03-15T06:19:01;6.00;;;5.07;;
703;SDS011;335;48.694;9.120;2023-03-15T06:21:27;11.43;;;5.87;;
703;SDS011;335;48.694;9.120;2023-03-15T06:23:52;7.90;;;5.33;;
703;SDS011;335;48.694;9.120;2023-03-15T06:26:18;7.03;;;5.20;;
703;SDS011;335;48.694;9.120;2023-03-15T06:28:44;11.03;;;4.90;;
703;SDS011;335;48.694;9.120;2023-03-15T06:31:10;10.60;;;5.20;;
703;SDS011;335;48.694;9.120;2023-03-15T06:33:36;6.43;;;4.75;;
703;SDS011;335;48.694;9.120;2023-03-15T06:36:02;13.03;;;6.10;;
703;SDS011;335;48.694;9.120;2023-03-15T06:38:27;13.80;;;6.70;;
703;SDS011;335;48.694;9.120;2023-03-15T06:40:54;6.80;;;5.07;;
703;SDS011;335;48.694;9.120;2023-03-15T06:43:19;7.13;;;5.27;;
703;SDS011;335;48.694;9.120;2023-03-15T06:45:45;7.87;;;5.67;;
703;SDS011;335;48.694;9.120;2023-03-15T06:48:12;8.53;;;5.27;;
703;SDS011;335;48.694;9.120;2023-03-15T06:50:38;7.10;;;4.55;;
703;SDS011;335;48.694;9.120;2023-03-15T06:53:03;11.40;;;5.10;;
703;SDS011;335;48.694;9.120;2023-03-15T06:55:28;8.50;;;5.27;;
703;SDS011;335;48.694;9.120;2023-03-15T06:57:54;4.60;;;4.20;;
703;SDS011;335;48.694;9.120;2023-03-15T07:00:19;7.00;;;4.67;;
703;SDS011;335;48.694;9.120;2023-03-15T07:02:44;6.73;;;4.27;;
703;SDS011;335;48.694;9.120;2023-03-15T07:05:10;7.23;;;5.40;;
703;SDS011;335;48.694;9.120;2023-03-15T07:07:35;5.13;;;4.03;;
703;SDS011;335;48.694;9.120;2023-03-15T07:10:00;5.30;;;4.30;;
703;SDS011;335;48.694;9.120;2023-03-15T07:12:26;7.10;;;4.30;;
703;SDS011;335;48.694;9.120;2023-03-15T07:14:51;15.70;;;5.53;;
703;SDS011;335;48.694;9.120;2023-03-15T07:17:17;8.37;;;4.37;;
703;SDS011;335;48.694;9.120;2023-03-15T07:19:42;4.80;;;3.30;;
703;SDS011;335;48.694;9.120;2023-03-15T07:22:07;4.50;;;3.40;;
703;SDS011;335;48.694;9.120;2023-03-15T07:24:33;3.83;;;3.40;;
703;SDS011;335;48.694;9.120;2023-03-15T07:26:58;6.33;;;4.23;;
703;SDS011;335;48.694;9.120;2023-03-15T07:29:23;5.67;;;3.60;;
703;SDS011;335;48.694;9.120;2023-03-15T07:31:49;6.80;;;4.43;;
703;SDS011;335;48.694;9.120;2023-03-15T07:34:14;6.37;;;3.37;;
703;SDS011;335;48.694;9.120;2023-03-15T07:36:40;5.40;;;3.40;;
703;SDS011;335;48.694;9.120;2023-03-15T07:39:05;8.10;;;3.17;;
703;SDS011;335;48.694;9.120;2023-03-15T07:41:30;3.57;;;3.07;;
703;SDS011;335;48.694;9.120;2023-03-15T07:43:56;5.47;;;2.83;;
703;SDS011;335;48.694;9.120;2023-03-15T07:46:21;5.57;;;3.20;;
703;SDS011;335;48.694;9.120;2023-03-15T07:48:47;5.43;;;3.57;;
703;SDS011;335;48.694;9.120;2023-03-15T07:51:12;8.10;;;3.03;;
703;SDS011;335;48.694;9.120;2023-03-15T07:53:37;4.97;;;3.10;;
703;SDS011;335;48.694;9.120;2023-03-15T07:56:03;2.60;;;2.37;;
703;SDS011;335;48.694;9.120;2023-03-15T07:58:29;5.25;;;2.88;;
703;SDS011;335;48.694;9.120;2023-03-15T08:00:55;8.93;;;2.50;;
703;SDS011;335;48.694;9.120;2023-03-15T08:03:21;6.85;;;2.85;;
703;SDS011;335;48.694;9.120;2023-03-15T08:05:48;7.40;;;3.00;;
703;SDS011;335;48.694;9.120;2023-03-15T08:08:13;7.20;;;2.57;;
703;SDS011;335;48.694;9.120;2023-03-15T08:10:38;4.00;;;2.47;;
703;SDS011;335;48.694;9.120;2023-03-15T08:13:03;8.30;;;3.00;;
703;SDS011;335;48.694;9.120;2023-03-15T08:15:29;3.43;;;3.10;;
703;SDS011;335;48.694;9.120;2023-03-15T08:17:54;5.07;;;2.67;;
703;SDS011;335;48.694;9.120;2023-03-15T08:20:19;3.83;;;2.20;;
703;SDS011;335;48.694;9.120;2023-03-15T08:22:45;3.63;;;2.73;;
703;SDS011;335;48.694;9.120;2023-03-15T08:25:13;6.20;;;2.55;;
703;SDS011;335;48.694;9.120;2023-03-15T08:27:40;3.40;;;2.17;;
703;SDS011;335;48.694;9.120;2023-03-15T08:30:06;4.15;;;2.22;;
703;SDS011;335;48.694;9.120;2023-03-15T08:32:32;4.43;;;2.13;;
703;SDS011;335;48.694;9.120;2023-03-15T08:34:57;4.93;;;1.70;;
703;SDS011;335;48.694;9.120;2023-03-15T08:37:23;3.60;;;2.07;;
703;SDS011;335;48.694;9.120;2023-03-15T08:39:48;2.60;;;1.77;;
703;SDS011;335;48.694;9.120;2023-03-15T08:42:21;1.80;;;1.63;;
703;SDS011;335;48.694;9.120;2023-03-15T08:44:47;1.70;;;1.60;;
703;SDS011;335;48.694;9.120;2023-03-15T08:47:12;1.57;;;1.47;;
703;SDS011;335;48.694;9.120;2023-03-15T08:49:38;2.10;;;1.90;;
703;SDS011;335;48.694;9.120;2023-03-15T08:52:03;3.60;;;1.63;;
703;SDS011;335;48.694;9.120;2023-03-15T08:54:29;3.83;;;2.03;;
703;SDS011;335;48.694;9.120;2023-03-15T08:56:55;3.67;;;3.10;;
703;SDS011;335;48.694;9.120;2023-03-15T08:59:21;6.63;;;1.97;;
703;SDS011;335;48.694;9.120;2023-03-15T09:01:46;2.70;;;1.50;;
703;SDS011;335;48.694;9.120;2023-03-15T09:04:11;2.90;;;1.47;;
703;SDS011;335;48.694;9.120;2023-03-15T09:06:37;3.87;;;1.60;;
703;SDS011;335;48.694;9.120;2023-03-15T09:09:02;1.90;;;1.60;;
703;SDS011;335;48.694;9.120;2023-03-15T09:11:27;2.17;;;1.60;;
703;SDS011;335;48.694;9.120;2023-03-15T09:13:53;4.43;;;1.40;;
703;SDS011;335;48.694;9.120;2023-03-15T09:16:18;3.90;;;1.77;;
703;SDS011;335;48.694;9.120;2023-03-15T09:18:43;1.40;;;1.30;;
703;SDS011;335;48.694;9.120;2023-03-15T09:21:09;3.53;;;1.50;;
703;SDS011;335;48.694;9.120;2023-03-15T09:23:34;2.10;;;1.60;;
703;SDS011;335;48.694;9.120;2023-03-15T09:26:00;3.87;;;1.60;;
703;SDS011;335;48.694;9.120;2023-03-15T09:28:25;3.90;;;1.70;;
703;SDS011;335;48.694;9.120;2023-03-15T09:30:51;5.57;;;2.33;;
703;SDS011;335;48.694;9.120;2023-03-15T09:33:16;4.13;;;1.90;;
703;SDS011;335;48.694;9.120;2023-03-15T09:35:42;2.73;;;1.60;;
703;SDS011;335;48.694;9.120;2023-03-15T09:38:08;2.93;;;1.50;;
703;SDS011;335;48.694;9.120;2023-03-15T09:40:34;2.03;;;1.77;;
703;SDS011;335;48.694;9.120;2023-03-15T09:48:29;4.30;;;2.87;;
703;SDS011;335;48.694;9.120;2023-03-15T09:51:01;5.70;;;1.73;;
703;SDS011;335;48.694;9.120;2023-03-15T09:53:43;1.75;;;1.40;;
703;SDS011;335;48.694;9.120;2023-03-15T09:56:19;1.73;;;1.55;;
703;SDS011;335;48.694;9.120;2023-03-15T09:58:48;5.07;;;2.30;;
703;SDS011;335;48.694;9.120;2023-03-15T10:01:15;7.28;;;1.70;;
703;SDS011;335;48.694;9.120;2023-03-15T10:03:42;1.87;;;1.63;;
703;SDS011;335;48.694;9.120;2023-03-15T10:06:27;3.95;;;1.80;;
703;SDS011;335;48.694;9.120;2023-03-15T10:08:58;4.68;;;2.15;;
703;SDS011;335;48.694;9.120;2023-03-15T10:14:30;2.00;;;1.80;;
703;SDS011;335;48.694;9.120;2023-03-15T10:17:07;6.63;;;2.15;;
703;SDS011;335;48.694;9.120;2023-03-15T10:19:46;4.37;;;1.30;;
703;SDS011;335;48.694;9.120;2023-03-15T10:30:19;2.73;;;0.83;;
703;SDS011;335;48.694;9.120;2023-03-15T10:32:51;4.23;;;1.60;;
703;SDS011;335;48.694;9.120;2023-03-15T10:35:21;9.47;;;1.23;;
703;SDS011;335;48.694;9.120;2023-03-15T10:37:46;3.63;;;1.20;;
703;SDS011;335;48.694;9.120;2023-03-15T10:40:12;5.03;;;1.23;;
703;SDS011;335;48.694;9.120;2023-03-15T10:42:40;1.23;;;0.80;;
703;SDS011;335;48.694;9.120;2023-03-15T10:45:11;3.23;;;1.40;;
703;SDS011;335;48.694;9.120;2023-03-15T10:47:41;2.33;;;1.00;;
703;SDS011;335;48.694;9.120;2023-03-15T10:50:08;3.13;;;0.80;;
703;SDS011;335;48.694;9.120;2023-03-15T10:52:36;3.57;;;0.93;;
703;SDS011;335;48.694;9.120;2023-03-15T10:55:03;1.13;;;1.00;;
703;SDS011;335;48.694;9.120;2023-03-15T10:57:39;2.13;;;1.00;;
703;SDS011;335;48.694;9.120;2023-03-15T11:00:20;1.03;;;0.80;;
703;SDS011;335;48.694;9.120;2023-03-15T11:02:59;1.77;;;0.80;;
703;SDS011;335;48.694;9.120;2023-03-15T11:05:28;4.73;;;1.37;;
703;SDS011;335;48.694;9.120;2023-03-15T11:07:57;3.00;;;1.50;;
703;SDS011;335;48.694;9.120;2023-03-15T11:10:25;1.60;;;1.50;;
703;SDS011;335;48.694;9.120;2023-03-15T11:13:09;1.70;;;1.60;;
703;SDS011;335;48.694;9.120;2023-03-15T11:15:35;1.73;;;1.57;;
703;SDS011;335;48.694;9.120;2023-03-15T11:18:01;2.07;;;0.93;;
703;SDS011;335;48.694;9.120;2023-03-15T11:20:28;1.60;;;1.40;;
703;SDS011;335;48.694;9.120;2023-03-15T11:22:56;2.20;;;1.57;;
703;SDS011;335;48.694;9.120;2023-03-15T11:25:25;1.40;;;1.30;;
703;SDS011;335;48.694;9.120;2023-03-15T11:27:55;2.47;;;1.40;;
703;SDS011;335;48.694;9.120;2023-03-15T11:30:26;2.67;;;1.63;;
703;SDS011;335;48.694;9.120;2023-03-15T11:32:53;1.27;;;1.17;;
703;SDS011;335;48.694;9.120;2023-03-15T11:35:23;5.77;;;1.60;;
703;SDS011;335;48.694;9.120;2023-03-15T11:37:56;2.20;;;1.37;;
703;SDS011;335;48.694;9.120;2023-03-15T11:40:29;1.93;;;1.30;;
703;SDS011;335;48.694;9.120;2023-03-15T11:43:01;2.00;;;1.10;;
703;SDS011;335;48.694;9.120;2023-03-15T11:45:37;2.27;;;1.63;;
703;SDS011;335;48.694;9.120;2023-03-15T11:48:10;3.20;;;1.67;;
703;SDS011;335;48.694;9.120;2023-03-15T11:50:39;1.47;;;1.10;;
703;SDS011;335;48.694;9.120;2023-03-15T11:53:04;1.53;;;1.43;;
703;SDS011;335;48.694;9.120;2023-03-15T11:55:31;2.80;;;1.67;;
703;SDS011;335;48.694;9.120;2023-03-15T11:57:56;1.73;;;1.40;;
703;SDS011;335;48.694;9.120;2023-03-15T12:00:59;3.30;;;1.83;;
703;SDS011;335;48.694;9.120;2023-03-15T12:03:36;1.30;;;1.20;;
703;SDS011;335;48.694;9.120;2023-03-15T12:08:47;1.73;;;1.23;;
703;SDS011;335;48.694;9.120;2023-03-15T12:16:26;1.43;;;1.30;;
703;SDS011;335;48.694;9.120;2023-03-15T12:18:56;2.90;;;1.43;;
703;SDS011;335;48.694;9.120;2023-03-15T12:21:22;3.17;;;1.10;;
703;SDS011;335;48.694;9.120;2023-03-15T12:23:57;1.67;;;1.30;;
703;SDS011;335;48.694;9.120;2023-03-15T12:29:22;3.30;;;1.30;;
703;SDS011;335;48.694;9.120;2023-03-15T12:34:26;1.90;;;1.30;;
703;SDS011;335;48.694;9.120;2023-03-15T12:37:20;2.20;;;1.00;;
703;SDS011;335;48.694;9.120;2023-03-15T12:39:48;1.30;;;1.20;;
703;SDS011;335;48.694;9.120;2023-03-15T12:44:53;1.00;;;1.00;;
703;SDS011;335;48.694;9.120;2023-03-15T12:47:18;1.27;;;1.20;;
703;SDS011;335;48.694;9.120;2023-03-15T12:49:44;4.40;;;1.23;;
703;SDS011;335;48.694;9.120;2023-03-15T12:54:42;1.43;;;1.33;;
703;SDS011;335;48.694;9.120;2023-03-15T12:57:18;1.57;;;1.23;;
703;SDS011;335;48.694;9.120;2023-03-15T12:59:55;2.93;;;0.47;;
703;SDS011;335;48.694;9.120;2023-03-15T13:05:11;2.40;;;1.03;;
703;SDS011;335;48.694;9.120;2023-03-15T13:07:48;1.20;;;1.10;;
703;SDS011;335;48.694;9.120;2023-03-15T13:15:57;3.10;;;1.37;;
703;SDS011;335;48.694;9.120;2023-03-15T13:18:26;1.40;;;1.30;;
703;SDS011;335;48.694;9.120;2023-03-15T13:21:17;1.83;;;1.20;;
703;SDS011;335;48.694;9.120;2023-03-15T13:23:42;1.37;;;1.27;;
703;SDS011;335;48.694;9.120;2023-03-15T13:29:12;2.80;;;1.43;;
703;SDS011;335;48.694;9.120;2023-03-15T13:31:40;1.53;;;1.43;;
703;SDS011;335;48.694;9.120;2023-03-15T13:34:20;2.80;;;2.40;;
703;SDS011;335;48.694;9.120;2023-03-15T13:36:51;4.63;;;1.80;;
703;SDS011;335;48.694;9.120;2023-03-15T13:39:22;2.63;;;1.70;;
703;SDS011;335;48.694;9.120;2023-03-15T13:41:49;1.40;;;1.30;;
703;SDS011;335;48.694;9.120;2023-03-15T13:44:21;2.70;;;1.80;;
703;SDS011;335;48.694;9.120;2023-03-15T13:46:49;3.43;;;1.73;;
703;SDS011;335;48.694;9.120;2023-03-15T13:49:15;2.20;;;1.57;;
703;SDS011;335;48.694;9.120;2023-03-15T13:51:41;2.20;;;1.40;;
703;SDS011;335;48.694;9.120;2023-03-15T13:54:07;1.90;;;1.40;;
703;SDS011;335;48.694;9.120;2023-03-15T13:56:44;3.17;;;1.57;;
703;SDS011;335;48.694;9.120;2023-03-15T13:59:19;2.83;;;2.37;;
703;SDS011;335;48.694;9.120;2023-03-15T14:01:45;2.67;;;1.80;;
703;SDS011;335;48.694;9.120;2023-03-15T14:04:16;1.97;;;1.77;;
703;SDS011;335;48.694;9.120;2023-03-15T14:06:42;2.53;;;2.20;;
703;SDS011;335;48.694;9.120;2023-03-15T14:09:18;3.83;;;1.50;;
703;SDS011;335;48.694;9.120;2023-03-15T14:11:46;3.97;;;1.53;;
703;SDS011;335;48.694;9.120;2023-03-15T14:14:26;3.00;;;2.10;;
703;SDS011;335;48.694;9.120;2023-03-15T14:16:53;3.33;;;1.70;;
703;SDS011;335;48.694;9.120;2023-03-15T14:21:45;2.40;;;1.30;;
703;SDS011;335;48.694;9.120;2023-03-15T14:26:59;1.00;;;0.90;;
703;SDS011;335;48.694;9.120;2023-03-15T14:29:27;1.67;;;1.30;;
703;SDS011;335;48.694;9.120;2023-03-15T14:31:57;1.10;;;1.00;;
703;SDS011;335;48.694;9.120;2023-03-15T14:34:29;3.03;;;1.33;;
703;SDS011;335;48.694;9.120;2023-03-15T14:36:57;2.10;;;0.70;;
703;SDS011;335;48.694;9.120;2023-03-15T14:39:25;1.90;;;1.13;;
703;SDS011;335;48.694;9.120;2023-03-15T14:41:52;2.43;;;1.33;;
703;SDS011;335;48.694;9.120;2023-03-15T14:44:18;1.67;;;1.03;;
703;SDS011;335;48.694;9.120;2023-03-15T14:46:44;4.03;;;1.60;;
703;SDS011;335;48.694;9.120;2023-03-15T14:49:11;2.30;;;1.47;;
703;SDS011;335;48.694;9.120;2023-03-15T14:51:37;1.80;;;1.70;;
703;SDS011;335;48.694;9.120;2023-03-15T14:54:02;2.70;;;2.10;;
703;SDS011;335;48.694;9.120;2023-03-15T14:56:28;1.90;;;1.77;;
703;SDS011;335;48.694;9.120;2023-03-15T14:58:53;2.03;;;1.90;;
703;SDS011;335;48.694;9.120;2023-03-15T15:01:19;1.67;;;1.57;;
703;SDS011;335;48.694;9.120;2023-03-15T15:03:49;1.47;;;1.37;;
703;SDS011;335;48.694;9.120;2023-03-15T15:06:17;1.40;;;1.30;;
703;SDS011;335;48.694;9.120;2023-03-15T15:08:43;1.60;;;1.50;;
703;SDS011;335;48.694;9.120;2023-03-15T15:11:11;1.40;;;1.30;;
703;SDS011;335;48.694;9.120;2023-03-15T15:13:37;6.23;;;1.83;;
703;SDS011;335;48.694;9.120;2023-03-15T15:16:02;1.63;;;1.53;;
703;SDS011;335;48.694;9.120;2023-03-15T15:18:29;1.70;;;1.60;;
703;SDS011;335;48.694;9.120;2023-03-15T15:20:57;2.30;;;1.90;;
703;SDS011;335;48.694;9.120;2023-03-15T15:23:27;1.40;;;1.30;;
703;SDS011;335;48.694;9.120;2023-03-15T15:26:00;1.83;;;1.45;;
703;SDS011;335;48.694;9.120;2023-03-15T15:28:27;5.18;;;1.70;;
703;SDS011;335;48.694;9.120;2023-03-15T15:30:54;1.85;;;1.75;;
703;SDS011;335;48.694;9.120;2023-03-15T15:33:19;1.47;;;1.47;;
703;SDS011;335;48.694;9.120;2023-03-15T15:35:46;1.88;;;1.77;;
703;SDS011;335;48.694;9.120;2023-03-15T15:38:14;2.10;;;2.00;;
703;SDS011;335;48.694;9.120;2023-03-15T15:40:39;4.27;;;1.93;;
703;SDS011;335;48.694;9.120;2023-03-15T15:43:05;2.40;;;1.87;;
703;SDS011;335;48.694;9.120;2023-03-15T15:45:30;3.43;;;1.57;;
703;SDS011;335;48.694;9.120;2023-03-15T15:47:58;2.15;;;2.00;;
703;SDS011;335;48.694;9.120;2023-03-15T15:50:29;2.35;;;1.48;;
703;SDS011;335;48.694;9.120;2023-03-15T15:52:56;1.77;;;1.67;;
703;SDS011;335;48.694;9.120;2023-03-15T15:55:22;3.53;;;1.60;;
703;SDS011;335;48.694;9.120;2023-03-15T15:57:49;1.48;;;1.30;;
703;SDS011;335;48.694;9.120;2023-03-15T16:00:20;2.80;;;1.20;;
703;SDS011;335;48.694;9.120;2023-03-15T16:02:47;2.35;;;1.80;;
703;SDS011;335;48.694;9.120;2023-03-15T16:05:13;1.90;;;1.57;;
703;SDS011;335;48.694;9.120;2023-03-15T16:07:41;2.00;;;1.67;;
703;SDS011;335;48.694;9.120;2023-03-15T16:10:07;3.83;;;3.53;;
703;SDS011;335;48.694;9.120;2023-03-15T16:12:35;2.53;;;2.33;;
703;SDS011;335;48.694;9.120;2023-03-15T16:15:01;4.53;;;2.37;;
703;SDS011;335;48.694;9.120;2023-03-15T16:17:27;3.28;;;2.65;;
703;SDS011;335;48.694;9.120;2023-03-15T16:19:53;4.67;;;1.90;;
703;SDS011;335;48.694;9.120;2023-03-15T16:22:19;1.50;;;1.40;;
703;SDS011;335;48.694;9.120;2023-03-15T16:24:47;1.83;;;1.63;;
703;SDS011;335;48.694;9.120;2023-03-15T16:27:15;3.00;;;2.05;;
703;SDS011;335;48.694;9.120;2023-03-15T16:29:43;2.95;;;1.60;;
703;SDS011;335;48.694;9.120;2023-03-15T16:32:12;1.20;;;1.20;;
703;SDS011;335;48.694;9.120;2023-03-15T16:34:39;1.58;;;1.48;;
703;SDS011;335;48.694;9.120;2023-03-15T16:37:05;1.90;;;1.80;;
703;SDS011;335;48.694;9.120;2023-03-15T16:39:31;1.40;;;1.30;;
703;SDS011;335;48.694;9.120;2023-03-15T16:41:57;2.00;;;1.73;;
703;SDS011;335;48.694;9.120;2023-03-15T16:44:22;1.93;;;1.70;;
703;SDS011;335;48.694;9.120;2023-03-15T16:46:48;1.90;;;1.80;;